createdAt,value
2023-03-11T00:04:50.598Z,97238.59
2023-03-11T00:09:52.213Z,97258.91
2023-03-11T00:14:53.826Z,97273.09
2023-03-11T00:19:55.456Z,97283.88
2023-03-11T00:24:57.079Z,97287.34
2023-03-11T00:29:58.672Z,97289.91
2023-03-11T00:35:00.839Z,97320.31
2023-03-11T00:40:02.955Z,97313.56
2023-03-11T00:45:04.998Z,97317.38
2023-03-11T00:50:08.014Z,97324.03
2023-03-11T00:55:11.291Z,97361.13
2023-03-11T01:00:18.205Z,97369.16
2023-03-11T01:05:22.628Z,97385.41
2023-03-11T01:10:24.475Z,97417.38
2023-03-11T01:15:31.656Z,97434.50
2023-03-11T01:20:35.342Z,97427.31
2023-03-11T01:25:37.096Z,97452.97
2023-03-11T01:30:41.415Z,97477.38
2023-03-11T01:35:43.928Z,97478.31
2023-03-11T01:40:48.582Z,97488.72
2023-03-11T01:45:51.761Z,97500.94
2023-03-11T01:50:57.920Z,97503.88
2023-03-11T01:56:01.478Z,97530.38
2023-03-11T02:01:04.209Z,97559.19
2023-03-11T02:06:10.256Z,97529.50
2023-03-11T02:11:19.541Z,97549.25
2023-03-11T02:16:21.776Z,97578.06
2023-03-11T02:21:29.465Z,97583.22
2023-03-11T02:26:40.731Z,97589.69
2023-03-11T02:31:44.045Z,97611.88
2023-03-11T02:36:47.461Z,97623.00
2023-03-11T02:41:50.182Z,97612.75
2023-03-11T02:46:53.192Z,97662.88
2023-03-11T02:51:56.253Z,97686.38
2023-03-11T02:56:58.474Z,97669.00
2023-03-11T03:02:03.752Z,97695.63
2023-03-11T03:07:06.607Z,97704.38
2023-03-11T03:12:08.290Z,97730.81
2023-03-11T03:17:11.563Z,97720.03
2023-03-11T03:22:14.268Z,97770.09
2023-03-11T03:27:16.794Z,97775.03
2023-03-11T03:32:18.614Z,97812.22
2023-03-11T03:37:20.664Z,97807.56
2023-03-11T03:42:25.233Z,97832.50
2023-03-11T03:47:27.357Z,97841.94
2023-03-11T03:52:29.130Z,97878.31
2023-03-11T03:57:31.200Z,97885.22
2023-03-11T04:02:32.983Z,97911.97
2023-03-11T04:07:36.454Z,97932.44
2023-03-11T04:12:40.238Z,97936.31
2023-03-11T04:17:43.292Z,97953.91
2023-03-11T04:22:44.890Z,97959.84
2023-03-11T04:27:50.018Z,97981.25
2023-03-11T04:32:52.247Z,97987.03
2023-03-11T04:37:53.955Z,98006.22
2023-03-11T04:42:56.742Z,98013.19
2023-03-11T04:47:59.106Z,98025.03
2023-03-11T04:53:01.395Z,98028.81
2023-03-11T04:58:04.162Z,98030.53
2023-03-11T05:03:06.243Z,98048.91
2023-03-11T05:08:08.286Z,98078.66
2023-03-11T05:13:10.667Z,98090.09
2023-03-11T05:18:15.146Z,98108.59
2023-03-11T05:23:17.034Z,98123.47
2023-03-11T05:28:18.751Z,98128.44
2023-03-11T05:33:25.092Z,98139.88
2023-03-11T05:38:27.921Z,98156.94
2023-03-11T05:43:29.817Z,98173.97
2023-03-11T05:48:31.638Z,98178.09
2023-03-11T05:53:33.363Z,98195.50
2023-03-11T05:58:35.245Z,98198.00
2023-03-11T06:03:39.445Z,98208.44
2023-03-11T06:08:46.036Z,98235.16
2023-03-11T06:13:47.845Z,98244.91
2023-03-11T06:18:49.699Z,98256.72
2023-03-11T06:23:51.457Z,98281.06
2023-03-11T06:28:53.673Z,98282.88
2023-03-11T06:33:56.115Z,98279.69
2023-03-11T06:38:58.327Z,98313.34
2023-03-11T06:44:01.676Z,98329.94
2023-03-11T06:49:03.834Z,98337.34
2023-03-11T06:54:06.814Z,98362.38
2023-03-11T06:59:09.090Z,98352.63
2023-03-11T07:04:11.004Z,98365.41
2023-03-11T07:09:15.422Z,98396.44
2023-03-11T07:14:19.866Z,98398.69
2023-03-11T07:19:26.183Z,98413.34
2023-03-11T07:24:27.808Z,98411.22
2023-03-11T07:29:29.426Z,98437.09
2023-03-11T07:34:31.049Z,98444.50
2023-03-11T07:39:32.692Z,98457.50
2023-03-11T07:44:34.472Z,98472.06
2023-03-11T07:49:36.111Z,98476.53
2023-03-11T07:54:37.772Z,98486.72
2023-03-11T07:59:39.393Z,98513.69
2023-03-11T08:04:41.063Z,98516.31
2023-03-11T08:09:42.728Z,98514.38
2023-03-11T08:14:44.382Z,98532.44
2023-03-11T08:19:46.019Z,98535.88
2023-03-11T08:24:51.907Z,98546.72
2023-03-11T08:29:53.538Z,98568.69
2023-03-11T08:34:55.248Z,98579.56
2023-03-11T08:39:57.313Z,98593.25
2023-03-11T08:44:58.978Z,98595.09
2023-03-11T08:50:00.647Z,98607.09
2023-03-11T08:55:02.530Z,98627.44
2023-03-11T09:00:07.218Z,98630.03
2023-03-11T09:05:09.697Z,98636.53
2023-03-11T09:10:16.571Z,98651.66
2023-03-11T09:15:18.265Z,98647.53
2023-03-11T09:20:20.449Z,98656.44
2023-03-11T09:25:22.105Z,98677.06
2023-03-11T09:30:23.778Z,98681.66
2023-03-11T09:35:25.478Z,98689.59
2023-03-11T09:40:32.823Z,98696.84
2023-03-11T09:45:39.518Z,98712.19
2023-03-11T09:50:53.755Z,98713.69
2023-03-11T09:55:58.296Z,98722.41
2023-03-11T10:01:00.764Z,98726.84
2023-03-11T10:06:15.680Z,98734.13
2023-03-11T10:11:23.973Z,98743.78
2023-03-11T10:16:38.601Z,98745.63
2023-03-11T10:21:59.313Z,98759.00
2023-03-11T10:27:06.734Z,98754.53
2023-03-11T10:32:42.471Z,98774.63
2023-03-11T10:37:51.803Z,98775.84
2023-03-11T10:42:57.516Z,98786.06
2023-03-11T10:47:59.194Z,98796.47
2023-03-11T10:53:10.784Z,98806.31
2023-03-11T10:58:15.878Z,98804.44
2023-03-11T11:03:23.721Z,98805.38
2023-03-11T11:08:25.496Z,98816.41
2023-03-11T11:13:34.503Z,98829.91
2023-03-11T11:18:49.414Z,98823.63
2023-03-11T11:24:24.197Z,98821.22
2023-03-11T11:29:25.820Z,98828.84
2023-03-11T11:34:35.022Z,98832.00
2023-03-11T11:39:51.792Z,98838.03
2023-03-11T11:45:00.438Z,98846.09
2023-03-11T11:50:07.028Z,98844.22
2023-03-11T11:55:20.787Z,98851.88
2023-03-11T12:00:45.929Z,98843.34
2023-03-11T12:06:00.293Z,98846.34
2023-03-11T12:11:06.368Z,98844.81
2023-03-11T12:16:14.106Z,98843.72
2023-03-11T12:21:44.186Z,98848.00
2023-03-11T12:26:49.255Z,98854.81
2023-03-11T12:31:51.746Z,98862.19
2023-03-11T12:36:55.694Z,98857.03
2023-03-11T12:42:21.288Z,98862.34
2023-03-11T12:47:25.099Z,98857.34
2023-03-11T12:52:28.635Z,98860.28
2023-03-11T12:57:40.108Z,98869.78
2023-03-11T13:03:00.604Z,98867.06
2023-03-11T13:08:17.717Z,98883.97
2023-03-11T13:13:26.374Z,98881.25
2023-03-11T13:18:30.611Z,98890.84
2023-03-11T13:23:37.825Z,98905.31
2023-03-11T13:29:31.176Z,98914.69
2023-03-11T13:35:01.626Z,98921.41
2023-03-11T13:40:15.992Z,98918.38
2023-03-11T13:45:35.836Z,98937.91
2023-03-11T13:50:41.736Z,98940.56
2023-03-11T13:55:47.023Z,98949.59
2023-03-11T14:00:51.710Z,98956.72
2023-03-11T14:06:00.634Z,98961.34
2023-03-11T14:11:12.142Z,98955.19
2023-03-11T14:16:20.293Z,98964.06
2023-03-11T14:21:23.089Z,98981.28
2023-03-11T14:26:29.566Z,98985.09
2023-03-11T14:31:33.979Z,98982.53
2023-03-11T14:36:44.686Z,98977.00
2023-03-11T14:41:46.491Z,98985.75
2023-03-11T14:46:49.798Z,98998.59
2023-03-11T14:52:01.482Z,99001.97
2023-03-11T14:57:18.199Z,99015.22
2023-03-11T15:02:50.936Z,99014.56
2023-03-11T15:07:59.241Z,99027.41
2023-03-11T15:13:10.485Z,99030.00
2023-03-11T15:18:23.598Z,99036.88
2023-03-11T15:23:25.245Z,99035.06
2023-03-11T15:28:32.169Z,99038.53
2023-03-11T15:33:34.272Z,99055.88
2023-03-11T15:38:35.889Z,99059.38
2023-03-11T15:43:48.524Z,99069.16
2023-03-11T15:48:50.186Z,99076.56
2023-03-11T15:53:51.804Z,99081.16
2023-03-11T15:58:53.419Z,99087.03
2023-03-11T16:03:55.949Z,99088.97
2023-03-11T16:08:57.567Z,99096.50
2023-03-11T16:13:59.718Z,99101.25
2023-03-11T16:19:01.365Z,99107.66
2023-03-11T16:24:04.681Z,99108.66
2023-03-11T16:29:18.601Z,99123.69
2023-03-11T16:34:21.364Z,99121.13
2023-03-11T16:39:22.962Z,99128.97
2023-03-11T16:44:24.608Z,99136.78
2023-03-11T16:49:26.252Z,99142.31
2023-03-11T16:54:27.869Z,99152.53
2023-03-11T16:59:30.112Z,99157.81
2023-03-11T17:04:31.891Z,99164.91
2023-03-11T17:09:35.558Z,99173.91
2023-03-11T17:14:37.198Z,99183.22
2023-03-11T17:19:38.877Z,99195.75
2023-03-11T17:24:40.624Z,99201.91
2023-03-11T17:29:42.232Z,99201.38
2023-03-11T17:34:43.917Z,99206.56
2023-03-11T17:39:45.594Z,99206.56
2023-03-11T17:44:51.857Z,99220.56
2023-03-11T17:49:54.336Z,99215.91
2023-03-11T17:54:56.633Z,99227.06
2023-03-11T18:00:04.189Z,99219.47
2023-03-11T18:05:07.112Z,99230.97
2023-03-11T18:10:09.839Z,99232.16
2023-03-11T18:15:18.248Z,99242.13
2023-03-11T18:20:20.442Z,99238.19
2023-03-11T18:25:22.050Z,99239.75
2023-03-11T18:30:23.871Z,99245.09
2023-03-11T18:35:25.466Z,99246.88
2023-03-11T18:40:27.984Z,99251.09
2023-03-11T18:45:29.736Z,99248.06
2023-03-11T18:50:31.355Z,99253.50
2023-03-11T18:55:35.437Z,99254.00
2023-03-11T19:00:37.137Z,99261.81
2023-03-11T19:05:38.766Z,99258.94
2023-03-11T19:10:42.378Z,99262.41
2023-03-11T19:15:44.016Z,99269.63
2023-03-11T19:20:45.624Z,99279.22
2023-03-11T19:26:00.692Z,99280.66
2023-03-11T19:31:05.483Z,99294.38
2023-03-11T19:36:08.498Z,99286.81
2023-03-11T19:41:19.016Z,99299.16
2023-03-11T19:46:22.314Z,99299.44
2023-03-11T19:51:26.663Z,99295.69
2023-03-11T19:56:30.054Z,99310.31
2023-03-11T20:01:31.763Z,99304.78
2023-03-11T20:06:33.509Z,99305.38
2023-03-11T20:11:39.708Z,99300.56
2023-03-11T20:16:41.552Z,99309.22
2023-03-11T20:21:45.712Z,99314.84
2023-03-11T20:26:50.046Z,99316.66
2023-03-11T20:31:53.015Z,99313.00
2023-03-11T20:36:54.774Z,99317.34
2023-03-11T20:41:56.383Z,99320.09
2023-03-11T20:46:58.049Z,99311.03
2023-03-11T20:52:01.267Z,99312.53
2023-03-11T20:57:02.994Z,99311.03
2023-03-11T21:02:06.499Z,99313.78
2023-03-11T21:07:08.278Z,99318.13
2023-03-11T21:12:09.946Z,99322.44
2023-03-11T21:17:11.760Z,99318.00
2023-03-11T21:22:13.561Z,99309.78
2023-03-11T21:27:15.283Z,99310.84
2023-03-11T21:32:16.994Z,99306.84
2023-03-11T21:37:18.713Z,99304.44
2023-03-11T21:42:20.848Z,99305.09
2023-03-11T21:47:22.467Z,99317.06
2023-03-11T21:52:24.059Z,99313.09
2023-03-11T21:57:25.799Z,99304.34
2023-03-11T22:02:27.496Z,99306.22
2023-03-11T22:07:29.122Z,99319.88
2023-03-11T22:12:30.780Z,99319.28
2023-03-11T22:17:32.434Z,99331.84
2023-03-11T22:22:34.128Z,99328.59
2023-03-11T22:27:36.137Z,99331.13
2023-03-11T22:32:37.817Z,99332.09
2023-03-11T22:37:39.418Z,99328.16
2023-03-11T22:42:41.122Z,99317.88
2023-03-11T22:47:42.711Z,99342.38
2023-03-11T22:52:44.315Z,99344.88
2023-03-11T22:57:45.961Z,99342.22
2023-03-11T23:02:49.407Z,99347.41
2023-03-11T23:07:51.566Z,99344.38
2023-03-11T23:12:53.193Z,99343.53
2023-03-11T23:17:54.820Z,99345.78
2023-03-11T23:22:56.456Z,99343.34
2023-03-11T23:27:58.070Z,99340.84
2023-03-11T23:33:02.526Z,99348.75
2023-03-11T23:38:04.116Z,99354.88
2023-03-11T23:43:05.819Z,99359.41
2023-03-11T23:48:07.441Z,99357.94
2023-03-11T23:53:09.053Z,99364.47
2023-03-11T23:58:10.843Z,99365.53
